sensor_id;sensor_type;location;lat;lon;timestamp;P1;durP1;ratioP1;P2;durP2;ratioP2
26574;SDS011;67165;50.256;10.978;2023-05-10T00:01:47;5.90;;;3.20;;
26574;SDS011;67165;50.256;10.978;2023-05-10T00:04:13;5.38;;;3.40;;
26574;SDS011;67165;50.256;10.978;2023-05-10T00:06:39;4.28;;;3.17;;
26574;SDS011;67165;50.256;10.978;2023-05-10T00:09:05;6.88;;;3.40;;
26574;SDS011;67165;50.256;10.978;2023-05-10T00:11:30;8.70;;;3.47;;
26574;SDS011;67165;50.256;10.978;2023-05-10T00:13:56;6.57;;;3.33;;
26574;SDS011;67165;50.256;10.978;2023-05-10T00:16:22;7.30;;;3.40;;
26574;SDS011;67165;50.256;10.978;2023-05-10T00:18:47;8.55;;;3.75;;
26574;SDS011;67165;50.256;10.978;2023-05-10T00:21:13;5.97;;;3.47;;
26574;SDS011;67165;50.256;10.978;2023-05-10T00:23:39;4.72;;;3.45;;
26574;SDS011;67165;50.256;10.978;2023-05-10T00:26:04;4.78;;;3.33;;
26574;SDS011;67165;50.256;10.978;2023-05-10T00:28:30;9.73;;;3.60;;
26574;SDS011;67165;50.256;10.978;2023-05-10T00:30:55;4.32;;;3.28;;
26574;SDS011;67165;50.256;10.978;2023-05-10T00:33:21;3.90;;;3.50;;
26574;SDS011;67165;50.256;10.978;2023-05-10T00:35:47;7.82;;;4.20;;
26574;SDS011;67165;50.256;10.978;2023-05-10T00:38:13;3.72;;;3.30;;
26574;SDS011;67165;50.256;10.978;2023-05-10T00:40:39;8.07;;;3.65;;
26574;SDS011;67165;50.256;10.978;2023-05-10T00:43:05;5.60;;;3.88;;
26574;SDS011;67165;50.256;10.978;2023-05-10T00:45:33;5.80;;;3.50;;
26574;SDS011;67165;50.256;10.978;2023-05-10T00:48:01;4.07;;;3.25;;
26574;SDS011;67165;50.256;10.978;2023-05-10T00:50:28;8.82;;;3.60;;
26574;SDS011;67165;50.256;10.978;2023-05-10T00:52:55;6.07;;;3.85;;
26574;SDS011;67165;50.256;10.978;2023-05-10T00:55:22;5.90;;;3.40;;
26574;SDS011;67165;50.256;10.978;2023-05-10T00:57:48;4.82;;;3.60;;
26574;SDS011;67165;50.256;10.978;2023-05-10T01:00:14;9.05;;;3.45;;
26574;SDS011;67165;50.256;10.978;2023-05-10T01:02:43;5.72;;;3.55;;
26574;SDS011;67165;50.256;10.978;2023-05-10T01:05:10;6.57;;;3.65;;
26574;SDS011;67165;50.256;10.978;2023-05-10T01:07:36;5.10;;;3.30;;
26574;SDS011;67165;50.256;10.978;2023-05-10T01:10:02;6.40;;;3.30;;
26574;SDS011;67165;50.256;10.978;2023-05-10T01:12:27;4.30;;;3.17;;
26574;SDS011;67165;50.256;10.978;2023-05-10T01:14:53;8.68;;;3.75;;
26574;SDS011;67165;50.256;10.978;2023-05-10T01:17:20;4.50;;;3.70;;
26574;SDS011;67165;50.256;10.978;2023-05-10T01:19:46;7.03;;;3.53;;
26574;SDS011;67165;50.256;10.978;2023-05-10T01:33:47;6.95;;;3.88;;
26574;SDS011;67165;50.256;10.978;2023-05-10T01:36:43;4.60;;;3.70;;
26574;SDS011;67165;50.256;10.978;2023-05-10T01:39:28;7.28;;;3.58;;
26574;SDS011;67165;50.256;10.978;2023-05-10T01:42:07;5.03;;;3.70;;
26574;SDS011;67165;50.256;10.978;2023-05-10T01:47:10;4.55;;;3.63;;
26574;SDS011;67165;50.256;10.978;2023-05-10T01:49:44;5.32;;;3.53;;
26574;SDS011;67165;50.256;10.978;2023-05-10T01:52:14;8.13;;;3.30;;
26574;SDS011;67165;50.256;10.978;2023-05-10T01:55:03;6.32;;;3.50;;
26574;SDS011;67165;50.256;10.978;2023-05-10T01:57:32;7.20;;;3.80;;
26574;SDS011;67165;50.256;10.978;2023-05-10T02:00:00;6.68;;;3.70;;
26574;SDS011;67165;50.256;10.978;2023-05-10T02:02:28;8.85;;;4.00;;
26574;SDS011;67165;50.256;10.978;2023-05-10T02:04:58;6.93;;;3.90;;
26574;SDS011;67165;50.256;10.978;2023-05-10T02:07:24;5.55;;;3.53;;
26574;SDS011;67165;50.256;10.978;2023-05-10T02:09:53;5.15;;;3.50;;
26574;SDS011;67165;50.256;10.978;2023-05-10T02:12:20;5.20;;;3.35;;
26574;SDS011;67165;50.256;10.978;2023-05-10T02:14:47;8.35;;;3.97;;
26574;SDS011;67165;50.256;10.978;2023-05-10T02:17:13;6.82;;;3.60;;
26574;SDS011;67165;50.256;10.978;2023-05-10T02:19:40;7.43;;;3.67;;
26574;SDS011;67165;50.256;10.978;2023-05-10T02:22:07;6.13;;;3.70;;
26574;SDS011;67165;50.256;10.978;2023-05-10T02:24:34;5.95;;;3.78;;
26574;SDS011;67165;50.256;10.978;2023-05-10T02:27:02;6.38;;;3.97;;
26574;SDS011;67165;50.256;10.978;2023-05-10T02:29:29;5.53;;;3.63;;
26574;SDS011;67165;50.256;10.978;2023-05-10T02:31:57;6.47;;;3.50;;
26574;SDS011;67165;50.256;10.978;2023-05-10T02:34:27;6.30;;;3.90;;
26574;SDS011;67165;50.256;10.978;2023-05-10T02:36:55;5.93;;;3.90;;
26574;SDS011;67165;50.256;10.978;2023-05-10T02:39:22;8.48;;;4.25;;
26574;SDS011;67165;50.256;10.978;2023-05-10T02:41:49;5.32;;;3.55;;
26574;SDS011;67165;50.256;10.978;2023-05-10T02:44:17;7.65;;;3.58;;
26574;SDS011;67165;50.256;10.978;2023-05-10T02:46:45;6.85;;;3.95;;
26574;SDS011;67165;50.256;10.978;2023-05-10T02:49:10;10.45;;;4.13;;
26574;SDS011;67165;50.256;10.978;2023-05-10T02:51:37;5.07;;;3.70;;
26574;SDS011;67165;50.256;10.978;2023-05-10T02:54:15;4.60;;;3.45;;
26574;SDS011;67165;50.256;10.978;2023-05-10T02:56:50;5.28;;;3.63;;
26574;SDS011;67165;50.256;10.978;2023-05-10T02:59:18;5.22;;;3.53;;
26574;SDS011;67165;50.256;10.978;2023-05-10T03:01:43;5.10;;;3.70;;
26574;SDS011;67165;50.256;10.978;2023-05-10T03:04:09;6.07;;;3.90;;
26574;SDS011;67165;50.256;10.978;2023-05-10T03:06:35;9.40;;;4.25;;
26574;SDS011;67165;50.256;10.978;2023-05-10T03:09:01;6.80;;;3.78;;
26574;SDS011;67165;50.256;10.978;2023-05-10T03:11:32;5.15;;;3.88;;
26574;SDS011;67165;50.256;10.978;2023-05-10T03:20:09;11.98;;;3.83;;
26574;SDS011;67165;50.256;10.978;2023-05-10T03:22:38;7.72;;;3.60;;
26574;SDS011;67165;50.256;10.978;2023-05-10T03:25:10;7.68;;;4.10;;
26574;SDS011;67165;50.256;10.978;2023-05-10T03:27:39;7.15;;;4.03;;
26574;SDS011;67165;50.256;10.978;2023-05-10T03:30:10;5.85;;;3.88;;
26574;SDS011;67165;50.256;10.978;2023-05-10T03:32:37;5.53;;;4.13;;
26574;SDS011;67165;50.256;10.978;2023-05-10T03:35:09;7.75;;;4.47;;
26574;SDS011;67165;50.256;10.978;2023-05-10T03:40:02;5.25;;;4.53;;
26574;SDS011;67165;50.256;10.978;2023-05-10T03:42:28;7.63;;;4.80;;
26574;SDS011;67165;50.256;10.978;2023-05-10T03:44:54;5.88;;;4.60;;
26574;SDS011;67165;50.256;10.978;2023-05-10T03:47:20;7.03;;;5.13;;
26574;SDS011;67165;50.256;10.978;2023-05-10T03:49:46;8.95;;;5.18;;
26574;SDS011;67165;50.256;10.978;2023-05-10T03:52:11;5.55;;;4.78;;
26574;SDS011;67165;50.256;10.978;2023-05-10T03:54:37;5.35;;;4.53;;
26574;SDS011;67165;50.256;10.978;2023-05-10T03:57:03;7.50;;;4.85;;
26574;SDS011;67165;50.256;10.978;2023-05-10T03:59:29;7.38;;;4.85;;
26574;SDS011;67165;50.256;10.978;2023-05-10T04:01:54;7.53;;;4.97;;
26574;SDS011;67165;50.256;10.978;2023-05-10T04:04:20;9.60;;;5.70;;
26574;SDS011;67165;50.256;10.978;2023-05-10T04:06:46;11.07;;;5.68;;
26574;SDS011;67165;50.256;10.978;2023-05-10T04:09:12;9.38;;;5.40;;
26574;SDS011;67165;50.256;10.978;2023-05-10T04:11:38;7.03;;;5.40;;
26574;SDS011;67165;50.256;10.978;2023-05-10T04:14:04;11.63;;;6.10;;
26574;SDS011;67165;50.256;10.978;2023-05-10T04:16:30;7.28;;;5.75;;
26574;SDS011;67165;50.256;10.978;2023-05-10T04:18:55;13.80;;;5.88;;
26574;SDS011;67165;50.256;10.978;2023-05-10T04:21:21;8.93;;;5.65;;
26574;SDS011;67165;50.256;10.978;2023-05-10T04:23:47;7.28;;;6.25;;
26574;SDS011;67165;50.256;10.978;2023-05-10T04:26:12;9.77;;;6.80;;
26574;SDS011;67165;50.256;10.978;2023-05-10T04:28:38;10.60;;;6.60;;
26574;SDS011;67165;50.256;10.978;2023-05-10T04:31:04;9.75;;;6.35;;
26574;SDS011;67165;50.256;10.978;2023-05-10T04:33:32;9.98;;;7.22;;
26574;SDS011;67165;50.256;10.978;2023-05-10T04:35:58;8.95;;;7.00;;
26574;SDS011;67165;50.256;10.978;2023-05-10T04:38:24;13.48;;;8.98;;
26574;SDS011;67165;50.256;10.978;2023-05-10T04:40:50;11.95;;;9.57;;
26574;SDS011;67165;50.256;10.978;2023-05-10T04:43:15;13.20;;;9.98;;
26574;SDS011;67165;50.256;10.978;2023-05-10T04:45:41;12.45;;;9.15;;
26574;SDS011;67165;50.256;10.978;2023-05-10T04:48:07;9.60;;;8.45;;
26574;SDS011;67165;50.256;10.978;2023-05-10T04:50:32;10.10;;;8.40;;
26574;SDS011;67165;50.256;10.978;2023-05-10T04:52:58;8.65;;;7.32;;
26574;SDS011;67165;50.256;10.978;2023-05-10T04:55:24;12.38;;;6.75;;
26574;SDS011;67165;50.256;10.978;2023-05-10T04:57:50;8.98;;;7.00;;
26574;SDS011;67165;50.256;10.978;2023-05-10T05:00:15;7.78;;;6.60;;
26574;SDS011;67165;50.256;10.978;2023-05-10T05:02:42;9.05;;;7.30;;
26574;SDS011;67165;50.256;10.978;2023-05-10T05:05:09;8.95;;;7.00;;
26574;SDS011;67165;50.256;10.978;2023-05-10T05:07:35;8.48;;;7.35;;
26574;SDS011;67165;50.256;10.978;2023-05-10T05:10:00;8.27;;;6.70;;
26574;SDS011;67165;50.256;10.978;2023-05-10T05:12:26;9.05;;;6.95;;
26574;SDS011;67165;50.256;10.978;2023-05-10T05:14:51;7.60;;;6.78;;
26574;SDS011;67165;50.256;10.978;2023-05-10T05:17:17;10.25;;;6.80;;
26574;SDS011;67165;50.256;10.978;2023-05-10T05:19:43;8.85;;;7.20;;
26574;SDS011;67165;50.256;10.978;2023-05-10T05:22:08;12.50;;;7.90;;
26574;SDS011;67165;50.256;10.978;2023-05-10T05:24:34;10.10;;;7.95;;
26574;SDS011;67165;50.256;10.978;2023-05-10T05:27:02;12.02;;;7.25;;
26574;SDS011;67165;50.256;10.978;2023-05-10T05:29:28;8.98;;;6.45;;
26574;SDS011;67165;50.256;10.978;2023-05-10T05:31:54;13.00;;;6.40;;
26574;SDS011;67165;50.256;10.978;2023-05-10T05:34:20;10.57;;;5.60;;
26574;SDS011;67165;50.256;10.978;2023-05-10T05:36:46;6.07;;;5.45;;
26574;SDS011;67165;50.256;10.978;2023-05-10T05:39:12;9.73;;;4.72;;
26574;SDS011;67165;50.256;10.978;2023-05-10T05:41:38;4.93;;;4.18;;
26574;SDS011;67165;50.256;10.978;2023-05-10T05:44:04;4.90;;;4.00;;
26574;SDS011;67165;50.256;10.978;2023-05-10T05:46:29;6.35;;;4.00;;
26574;SDS011;67165;50.256;10.978;2023-05-10T05:48:55;3.10;;;2.65;;
26574;SDS011;67165;50.256;10.978;2023-05-10T05:51:21;2.22;;;2.08;;
26574;SDS011;67165;50.256;10.978;2023-05-10T05:53:47;2.25;;;2.03;;
26574;SDS011;67165;50.256;10.978;2023-05-10T05:56:13;2.10;;;1.90;;
26574;SDS011;67165;50.256;10.978;2023-05-10T05:58:38;1.70;;;1.60;;
26574;SDS011;67165;50.256;10.978;2023-05-10T06:01:04;3.00;;;1.98;;
26574;SDS011;67165;50.256;10.978;2023-05-10T06:03:30;2.00;;;1.40;;
26574;SDS011;67165;50.256;10.978;2023-05-10T06:05:55;1.80;;;1.25;;
26574;SDS011;67165;50.256;10.978;2023-05-10T06:08:21;1.67;;;1.40;;
26574;SDS011;67165;50.256;10.978;2023-05-10T06:10:47;2.72;;;1.30;;
26574;SDS011;67165;50.256;10.978;2023-05-10T06:13:13;1.17;;;1.00;;
26574;SDS011;67165;50.256;10.978;2023-05-10T06:15:38;1.05;;;1.00;;
26574;SDS011;67165;50.256;10.978;2023-05-10T06:18:04;1.70;;;0.90;;
26574;SDS011;67165;50.256;10.978;2023-05-10T06:20:30;0.85;;;0.80;;
26574;SDS011;67165;50.256;10.978;2023-05-10T06:22:56;2.13;;;0.73;;
26574;SDS011;67165;50.256;10.978;2023-05-10T06:25:22;0.95;;;0.77;;
26574;SDS011;67165;50.256;10.978;2023-05-10T06:27:48;1.10;;;1.00;;
26574;SDS011;67165;50.256;10.978;2023-05-10T06:30:14;1.27;;;1.00;;
26574;SDS011;67165;50.256;10.978;2023-05-10T06:32:40;3.78;;;1.00;;
26574;SDS011;67165;50.256;10.978;2023-05-10T06:35:08;0.90;;;0.80;;
26574;SDS011;67165;50.256;10.978;2023-05-10T06:37:34;0.73;;;0.63;;
26574;SDS011;67165;50.256;10.978;2023-05-10T06:40:00;1.00;;;0.60;;
26574;SDS011;67165;50.256;10.978;2023-05-10T06:42:25;0.52;;;0.50;;
26574;SDS011;67165;50.256;10.978;2023-05-10T06:44:52;0.75;;;0.75;;
26574;SDS011;67165;50.256;10.978;2023-05-10T06:47:18;1.48;;;0.70;;
26574;SDS011;67165;50.256;10.978;2023-05-10T06:49:43;0.65;;;0.50;;
26574;SDS011;67165;50.256;10.978;2023-05-10T06:52:09;3.08;;;0.80;;
26574;SDS011;67165;50.256;10.978;2023-05-10T06:54:35;1.48;;;0.68;;
26574;SDS011;67165;50.256;10.978;2023-05-10T06:57:00;0.70;;;0.70;;
26574;SDS011;67165;50.256;10.978;2023-05-10T06:59:28;1.48;;;0.70;;
26574;SDS011;67165;50.256;10.978;2023-05-10T07:01:53;0.98;;;0.50;;
26574;SDS011;67165;50.256;10.978;2023-05-10T07:04:19;1.23;;;0.68;;
26574;SDS011;67165;50.256;10.978;2023-05-10T07:06:45;0.63;;;0.60;;
26574;SDS011;67165;50.256;10.978;2023-05-10T07:09:11;0.63;;;0.63;;
26574;SDS011;67165;50.256;10.978;2023-05-10T07:11:38;0.60;;;0.60;;
26574;SDS011;67165;50.256;10.978;2023-05-10T07:14:04;2.47;;;0.70;;
26574;SDS011;67165;50.256;10.978;2023-05-10T07:16:30;0.70;;;0.70;;
26574;SDS011;67165;50.256;10.978;2023-05-10T07:18:56;0.60;;;0.60;;
26574;SDS011;67165;50.256;10.978;2023-05-10T07:21:21;0.73;;;0.40;;
26574;SDS011;67165;50.256;10.978;2023-05-10T07:23:49;0.95;;;0.50;;
26574;SDS011;67165;50.256;10.978;2023-05-10T07:26:15;0.98;;;0.80;;
26574;SDS011;67165;50.256;10.978;2023-05-10T07:28:40;0.55;;;0.55;;
26574;SDS011;67165;50.256;10.978;2023-05-10T07:31:06;0.50;;;0.50;;
26574;SDS011;67165;50.256;10.978;2023-05-10T07:33:32;0.65;;;0.65;;
26574;SDS011;67165;50.256;10.978;2023-05-10T07:35:58;1.30;;;0.80;;
26574;SDS011;67165;50.256;10.978;2023-05-10T07:38:23;0.82;;;0.70;;
26574;SDS011;67165;50.256;10.978;2023-05-10T07:40:49;0.93;;;0.70;;
26574;SDS011;67165;50.256;10.978;2023-05-10T07:43:15;2.25;;;0.77;;
26574;SDS011;67165;50.256;10.978;2023-05-10T07:45:40;1.58;;;0.70;;
26574;SDS011;67165;50.256;10.978;2023-05-10T07:48:06;0.75;;;0.73;;
26574;SDS011;67165;50.256;10.978;2023-05-10T07:50:32;1.77;;;0.90;;
26574;SDS011;67165;50.256;10.978;2023-05-10T07:52:58;1.27;;;0.90;;
26574;SDS011;67165;50.256;10.978;2023-05-10T07:55:23;2.20;;;0.85;;
26574;SDS011;67165;50.256;10.978;2023-05-10T07:57:49;0.80;;;0.80;;
26574;SDS011;67165;50.256;10.978;2023-05-10T08:00:18;0.68;;;0.65;;
26574;SDS011;67165;50.256;10.978;2023-05-10T08:02:44;0.73;;;0.70;;
26574;SDS011;67165;50.256;10.978;2023-05-10T08:05:11;2.40;;;0.68;;
26574;SDS011;67165;50.256;10.978;2023-05-10T08:07:36;0.50;;;0.50;;
26574;SDS011;67165;50.256;10.978;2023-05-10T08:10:02;0.55;;;0.55;;
26574;SDS011;67165;50.256;10.978;2023-05-10T08:12:28;0.70;;;0.57;;
26574;SDS011;67165;50.256;10.978;2023-05-10T08:14:55;0.93;;;0.70;;
26574;SDS011;67165;50.256;10.978;2023-05-10T08:17:20;0.60;;;0.60;;
26574;SDS011;67165;50.256;10.978;2023-05-10T08:19:46;0.80;;;0.80;;
26574;SDS011;67165;50.256;10.978;2023-05-10T08:22:12;2.70;;;0.90;;
26574;SDS011;67165;50.256;10.978;2023-05-10T08:24:37;1.40;;;0.73;;
26574;SDS011;67165;50.256;10.978;2023-05-10T08:27:07;1.17;;;0.77;;
26574;SDS011;67165;50.256;10.978;2023-05-10T08:29:33;3.40;;;0.80;;
26574;SDS011;67165;50.256;10.978;2023-05-10T08:31:59;0.95;;;0.90;;
26574;SDS011;67165;50.256;10.978;2023-05-10T08:34:26;1.00;;;0.75;;
26574;SDS011;67165;50.256;10.978;2023-05-10T08:36:52;3.85;;;0.90;;
26574;SDS011;67165;50.256;10.978;2023-05-10T08:39:17;2.20;;;1.00;;
26574;SDS011;67165;50.256;10.978;2023-05-10T08:41:43;0.90;;;0.90;;
26574;SDS011;67165;50.256;10.978;2023-05-10T08:44:10;1.98;;;0.90;;
26574;SDS011;67165;50.256;10.978;2023-05-10T08:46:36;0.88;;;0.80;;
26574;SDS011;67165;50.256;10.978;2023-05-10T08:49:07;1.52;;;1.15;;
26574;SDS011;67165;50.256;10.978;2023-05-10T08:51:35;0.80;;;0.80;;
26574;SDS011;67165;50.256;10.978;2023-05-10T08:54:05;2.25;;;0.93;;
26574;SDS011;67165;50.256;10.978;2023-05-10T08:56:31;5.28;;;1.08;;
26574;SDS011;67165;50.256;10.978;2023-05-10T08:58:57;1.55;;;1.00;;
26574;SDS011;67165;50.256;10.978;2023-05-10T09:01:22;1.20;;;1.10;;
26574;SDS011;67165;50.256;10.978;2023-05-10T09:03:49;0.85;;;0.85;;
26574;SDS011;67165;50.256;10.978;2023-05-10T09:06:15;1.05;;;0.90;;
26574;SDS011;67165;50.256;10.978;2023-05-10T09:08:42;0.93;;;0.80;;
26574;SDS011;67165;50.256;10.978;2023-05-10T09:11:08;2.58;;;1.10;;
26574;SDS011;67165;50.256;10.978;2023-05-10T09:13:35;1.42;;;1.10;;
26574;SDS011;67165;50.256;10.978;2023-05-10T09:16:01;2.33;;;1.00;;
26574;SDS011;67165;50.256;10.978;2023-05-10T09:18:28;3.03;;;0.90;;
26574;SDS011;67165;50.256;10.978;2023-05-10T09:20:54;1.20;;;0.70;;
26574;SDS011;67165;50.256;10.978;2023-05-10T09:23:19;0.70;;;0.70;;
26574;SDS011;67165;50.256;10.978;2023-05-10T09:25:45;3.03;;;1.00;;
26574;SDS011;67165;50.256;10.978;2023-05-10T09:28:12;0.85;;;0.85;;
26574;SDS011;67165;50.256;10.978;2023-05-10T09:30:38;2.25;;;0.73;;
26574;SDS011;67165;50.256;10.978;2023-05-10T09:33:04;1.33;;;1.08;;
26574;SDS011;67165;50.256;10.978;2023-05-10T09:35:32;0.85;;;0.80;;
26574;SDS011;67165;50.256;10.978;2023-05-10T09:38:03;3.03;;;0.70;;
26574;SDS011;67165;50.256;10.978;2023-05-10T09:40:30;1.35;;;0.80;;
26574;SDS011;67165;50.256;10.978;2023-05-10T09:43:17;1.77;;;0.88;;
26574;SDS011;67165;50.256;10.978;2023-05-10T09:45:41;2.08;;;0.82;;
26574;SDS011;67165;50.256;10.978;2023-05-10T09:48:07;0.90;;;0.90;;
26574;SDS011;67165;50.256;10.978;2023-05-10T09:50:33;0.90;;;0.90;;
26574;SDS011;67165;50.256;10.978;2023-05-10T09:53:02;2.08;;;0.80;;
26574;SDS011;67165;50.256;10.978;2023-05-10T09:58:04;0.80;;;0.80;;
26574;SDS011;67165;50.256;10.978;2023-05-10T10:00:36;1.33;;;0.95;;
26574;SDS011;67165;50.256;10.978;2023-05-10T10:03:03;1.00;;;0.90;;
26574;SDS011;67165;50.256;10.978;2023-05-10T10:05:29;1.00;;;0.90;;
26574;SDS011;67165;50.256;10.978;2023-05-10T10:07:56;0.90;;;0.90;;
26574;SDS011;67165;50.256;10.978;2023-05-10T10:10:24;1.40;;;0.80;;
26574;SDS011;67165;50.256;10.978;2023-05-10T10:12:53;0.80;;;0.80;;
26574;SDS011;67165;50.256;10.978;2023-05-10T10:15:22;0.70;;;0.70;;
26574;SDS011;67165;50.256;10.978;2023-05-10T10:17:49;1.42;;;0.90;;
26574;SDS011;67165;50.256;10.978;2023-05-10T10:20:16;0.77;;;0.77;;
26574;SDS011;67165;50.256;10.978;2023-05-10T10:22:43;1.00;;;0.90;;
26574;SDS011;67165;50.256;10.978;2023-05-10T10:25:10;0.77;;;0.77;;
26574;SDS011;67165;50.256;10.978;2023-05-10T10:35:31;2.50;;;1.00;;
26574;SDS011;67165;50.256;10.978;2023-05-10T10:37:58;0.80;;;0.80;;
26574;SDS011;67165;50.256;10.978;2023-05-10T10:42:51;1.23;;;0.80;;
26574;SDS011;67165;50.256;10.978;2023-05-10T10:45:18;4.25;;;1.00;;
26574;SDS011;67165;50.256;10.978;2023-05-10T10:47:44;1.00;;;0.85;;
26574;SDS011;67165;50.256;10.978;2023-05-10T10:50:10;2.35;;;0.90;;
26574;SDS011;67165;50.256;10.978;2023-05-10T10:52:40;1.83;;;1.00;;
26574;SDS011;67165;50.256;10.978;2023-05-10T10:55:13;3.72;;;1.05;;
26574;SDS011;67165;50.256;10.978;2023-05-10T10:57:44;2.22;;;1.17;;
26574;SDS011;67165;50.256;10.978;2023-05-10T11:00:20;1.58;;;1.27;;
26574;SDS011;67165;50.256;10.978;2023-05-10T11:03:32;3.70;;;1.40;;
26574;SDS011;67165;50.256;10.978;2023-05-10T11:05:47;1.80;;;1.30;;
26574;SDS011;67165;50.256;10.978;2023-05-10T11:08:15;1.83;;;1.23;;
26574;SDS011;67165;50.256;10.978;2023-05-10T11:15:54;1.40;;;1.30;;
26574;SDS011;67165;50.256;10.978;2023-05-10T11:18:29;2.63;;;1.20;;
26574;SDS011;67165;50.256;10.978;2023-05-10T11:20:59;1.27;;;1.17;;
26574;SDS011;67165;50.256;10.978;2023-05-10T11:26:08;1.98;;;1.30;;
26574;SDS011;67165;50.256;10.978;2023-05-10T11:28:34;1.52;;;1.33;;
26574;SDS011;67165;50.256;10.978;2023-05-10T11:31:06;1.23;;;1.13;;
26574;SDS011;67165;50.256;10.978;2023-05-10T11:33:41;2.40;;;1.45;;
26574;SDS011;67165;50.256;10.978;2023-05-10T11:36:11;1.30;;;1.20;;
26574;SDS011;67165;50.256;10.978;2023-05-10T11:38:42;1.33;;;1.23;;
26574;SDS011;67165;50.256;10.978;2023-05-10T11:41:08;1.95;;;1.23;;
26574;SDS011;67165;50.256;10.978;2023-05-10T11:43:35;1.50;;;1.40;;
26574;SDS011;67165;50.256;10.978;2023-05-10T11:46:03;1.85;;;1.30;;
26574;SDS011;67165;50.256;10.978;2023-05-10T11:48:31;1.30;;;1.20;;
26574;SDS011;67165;50.256;10.978;2023-05-10T11:50:57;1.42;;;1.30;;
26574;SDS011;67165;50.256;10.978;2023-05-10T11:53:25;1.40;;;1.30;;
26574;SDS011;67165;50.256;10.978;2023-05-10T11:55:52;2.70;;;1.40;;
26574;SDS011;67165;50.256;10.978;2023-05-10T11:58:18;1.73;;;1.63;;
26574;SDS011;67165;50.256;10.978;2023-05-10T12:00:44;1.70;;;1.60;;
26574;SDS011;67165;50.256;10.978;2023-05-10T12:03:11;1.50;;;1.40;;
26574;SDS011;67165;50.256;10.978;2023-05-10T12:05:38;2.08;;;1.50;;
26574;SDS011;67165;50.256;10.978;2023-05-10T12:08:13;3.70;;;1.58;;
26574;SDS011;67165;50.256;10.978;2023-05-10T12:10:40;2.28;;;1.83;;
26574;SDS011;67165;50.256;10.978;2023-05-10T12:13:05;3.50;;;1.60;;
26574;SDS011;67165;50.256;10.978;2023-05-10T12:15:39;1.98;;;1.60;;
26574;SDS011;67165;50.256;10.978;2023-05-10T12:18:05;1.83;;;1.40;;
26574;SDS011;67165;50.256;10.978;2023-05-10T12:20:33;2.03;;;1.83;;
26574;SDS011;67165;50.256;10.978;2023-05-10T12:22:58;1.65;;;1.55;;
26574;SDS011;67165;50.256;10.978;2023-05-10T12:25:30;1.75;;;1.63;;
26574;SDS011;67165;50.256;10.978;2023-05-10T12:28:02;3.67;;;1.70;;
26574;SDS011;67165;50.256;10.978;2023-05-10T12:30:30;3.88;;;1.48;;
26574;SDS011;67165;50.256;10.978;2023-05-10T12:33:01;2.67;;;1.40;;
26574;SDS011;67165;50.256;10.978;2023-05-10T12:36:10;2.40;;;1.45;;
26574;SDS011;67165;50.256;10.978;2023-05-10T12:38:30;1.95;;;1.70;;
26574;SDS011;67165;50.256;10.978;2023-05-10T12:41:03;3.35;;;1.83;;
26574;SDS011;67165;50.256;10.978;2023-05-10T12:43:31;2.13;;;1.60;;
26574;SDS011;67165;50.256;10.978;2023-05-10T12:45:57;2.65;;;1.17;;
26574;SDS011;67165;50.256;10.978;2023-05-10T12:48:23;1.80;;;1.38;;
26574;SDS011;67165;50.256;10.978;2023-05-10T12:50:48;1.20;;;1.10;;
26574;SDS011;67165;50.256;10.978;2023-05-10T12:53:15;1.60;;;1.35;;
26574;SDS011;67165;50.256;10.978;2023-05-10T12:55:41;1.45;;;1.25;;
26574;SDS011;67165;50.256;10.978;2023-05-10T12:58:07;1.30;;;1.20;;
26574;SDS011;67165;50.256;10.978;2023-05-10T13:00:33;1.38;;;1.27;;
26574;SDS011;67165;50.256;10.978;2023-05-10T13:02:58;2.08;;;1.45;;
26574;SDS011;67165;50.256;10.978;2023-05-10T13:05:24;2.15;;;1.60;;
26574;SDS011;67165;50.256;10.978;2023-05-10T13:07:50;3.25;;;1.75;;
26574;SDS011;67165;50.256;10.978;2023-05-10T13:10:15;3.53;;;1.77;;
26574;SDS011;67165;50.256;10.978;2023-05-10T13:12:41;1.90;;;1.80;;
26574;SDS011;67165;50.256;10.978;2023-05-10T13:15:07;3.75;;;1.95;;
26574;SDS011;67165;50.256;10.978;2023-05-10T13:17:33;3.50;;;2.30;;
26574;SDS011;67165;50.256;10.978;2023-05-10T13:19:58;3.45;;;1.83;;
26574;SDS011;67165;50.256;10.978;2023-05-10T13:22:24;3.10;;;1.80;;
26574;SDS011;67165;50.256;10.978;2023-05-10T13:24:50;2.42;;;1.90;;
26574;SDS011;67165;50.256;10.978;2023-05-10T13:27:16;2.88;;;2.10;;
26574;SDS011;67165;50.256;10.978;2023-05-10T13:29:41;2.75;;;1.60;;
26574;SDS011;67165;50.256;10.978;2023-05-10T13:32:07;2.08;;;1.60;;
26574;SDS011;67165;50.256;10.978;2023-05-10T13:34:33;3.47;;;1.52;;
26574;SDS011;67165;50.256;10.978;2023-05-10T13:37:00;2.40;;;1.25;;
26574;SDS011;67165;50.256;10.978;2023-05-10T13:39:26;2.65;;;1.50;;
26574;SDS011;67165;50.256;10.978;2023-05-10T13:41:52;1.70;;;1.40;;
26574;SDS011;67165;50.256;10.978;2023-05-10T13:44:17;1.48;;;1.25;;
26574;SDS011;67165;50.256;10.978;2023-05-10T13:46:45;2.78;;;1.38;;
26574;SDS011;67165;50.256;10.978;2023-05-10T13:49:11;1.67;;;1.10;;
26574;SDS011;67165;50.256;10.978;2023-05-10T13:51:37;2.22;;;1.50;;
26574;SDS011;67165;50.256;10.978;2023-05-10T13:54:02;1.40;;;1.30;;
26574;SDS011;67165;50.256;10.978;2023-05-10T13:56:28;1.80;;;1.35;;
26574;SDS011;67165;50.256;10.978;2023-05-10T13:58:54;3.53;;;1.58;;
26574;SDS011;67165;50.256;10.978;2023-05-10T14:01:20;2.40;;;1.50;;
26574;SDS011;67165;50.256;10.978;2023-05-10T14:03:46;3.55;;;1.20;;
26574;SDS011;67165;50.256;10.978;2023-05-10T14:06:13;1.75;;;1.30;;
26574;SDS011;67165;50.256;10.978;2023-05-10T14:08:38;2.65;;;1.80;;
26574;SDS011;67165;50.256;10.978;2023-05-10T14:11:04;2.40;;;1.70;;
26574;SDS011;67165;50.256;10.978;2023-05-10T14:13:30;2.20;;;2.00;;
26574;SDS011;67165;50.256;10.978;2023-05-10T14:15:55;6.57;;;1.98;;
26574;SDS011;67165;50.256;10.978;2023-05-10T14:18:21;2.08;;;1.60;;
26574;SDS011;67165;50.256;10.978;2023-05-10T14:20:47;4.05;;;2.17;;
26574;SDS011;67165;50.256;10.978;2023-05-10T14:23:12;3.75;;;1.80;;
26574;SDS011;67165;50.256;10.978;2023-05-10T14:25:41;3.97;;;1.83;;
26574;SDS011;67165;50.256;10.978;2023-05-10T14:28:07;2.55;;;1.35;;
26574;SDS011;67165;50.256;10.978;2023-05-10T14:30:33;1.92;;;1.30;;
26574;SDS011;67165;50.256;10.978;2023-05-10T14:33:01;2.47;;;1.20;;
26574;SDS011;67165;50.256;10.978;2023-05-10T14:35:28;1.00;;;1.00;;
26574;SDS011;67165;50.256;10.978;2023-05-10T14:37:55;1.40;;;1.10;;
26574;SDS011;67165;50.256;10.978;2023-05-10T14:40:21;1.25;;;1.10;;
26574;SDS011;67165;50.256;10.978;2023-05-10T14:42:47;1.88;;;1.30;;
26574;SDS011;67165;50.256;10.978;2023-05-10T14:45:13;2.15;;;1.10;;
26574;SDS011;67165;50.256;10.978;2023-05-10T14:47:39;1.70;;;1.00;;
26574;SDS011;67165;50.256;10.978;2023-05-10T14:50:05;1.85;;;1.00;;
26574;SDS011;67165;50.256;10.978;2023-05-10T14:52:31;1.58;;;1.20;;
26574;SDS011;67165;50.256;10.978;2023-05-10T14:54:56;2.72;;;1.08;;
26574;SDS011;67165;50.256;10.978;2023-05-10T14:57:24;1.13;;;1.02;;
26574;SDS011;67165;50.256;10.978;2023-05-10T14:59:49;1.92;;;1.13;;
26574;SDS011;67165;50.256;10.978;2023-05-10T15:02:15;1.55;;;1.08;;
26574;SDS011;67165;50.256;10.978;2023-05-10T15:04:41;2.03;;;1.42;;
26574;SDS011;67165;50.256;10.978;2023-05-10T15:07:06;1.13;;;1.02;;
26574;SDS011;67165;50.256;10.978;2023-05-10T15:09:32;2.08;;;1.88;;
26574;SDS011;67165;50.256;10.978;2023-05-10T15:11:58;5.78;;;1.50;;
26574;SDS011;67165;50.256;10.978;2023-05-10T15:14:23;1.73;;;1.45;;
26574;SDS011;67165;50.256;10.978;2023-05-10T15:16:49;2.22;;;1.10;;